createdAt,value
2018-02-16T00:02:20.974Z,96.00
2018-02-16T00:12:23.646Z,95.06
2018-02-16T00:22:23.149Z,95.90
2018-02-16T00:32:23.782Z,96.67
2018-02-16T00:42:24.813Z,97.03
2018-02-16T00:52:29.555Z,97.08
2018-02-16T01:02:26.133Z,97.60
2018-02-16T01:12:26.529Z,97.92
2018-02-16T01:22:26.880Z,98.34
2018-02-16T01:32:30.652Z,97.50
2018-02-16T01:42:35.635Z,97.60
2018-02-16T01:52:34.902Z,96.30
2018-02-16T02:02:26.070Z,95.98
2018-02-16T02:12:29.249Z,95.25
2018-02-16T02:22:25.714Z,95.67
2018-02-16T02:32:27.962Z,96.04
2018-02-16T02:42:24.235Z,95.42
2018-02-16T02:52:24.691Z,94.79
2018-02-16T03:02:25.491Z,94.43
2018-02-16T03:12:26.866Z,97.09
2018-02-16T03:22:18.628Z,94.95
2018-02-16T03:32:14.939Z,94.07
2018-02-16T03:42:17.494Z,95.48
2018-02-16T03:52:16.614Z,94.22
2018-02-16T04:02:12.808Z,96.51
2018-02-16T04:12:13.602Z,96.19
2018-02-16T04:22:15.056Z,95.46
2018-02-16T04:32:22.048Z,97.14
2018-02-16T04:42:18.358Z,97.29
2018-02-16T04:52:17.619Z,98.59
2018-02-16T05:02:18.958Z,99.22
2018-02-16T05:12:23.481Z,99.43
2018-02-16T05:22:21.901Z,99.33
2018-02-16T05:32:24.142Z,99.11
2018-02-16T05:42:21.904Z,99.18
2018-02-16T05:52:27.841Z,98.91
2018-02-16T06:02:23.201Z,98.69
2018-02-16T06:12:26.290Z,99.28
2018-02-16T06:22:31.247Z,97.77
2018-02-16T06:32:22.260Z,96.57
2018-02-16T06:42:28.473Z,97.41
2018-02-16T06:52:27.637Z,96.57
2018-02-16T07:02:24.649Z,94.74
2018-02-16T07:11:58.398Z,94.60
2018-02-16T07:21:57.496Z,93.26
2018-02-16T07:31:59.808Z,91.85
2018-02-16T07:41:53.676Z,92.63
2018-02-16T07:51:53.370Z,90.39
2018-02-16T08:01:53.448Z,90.39
2018-02-16T08:11:55.652Z,87.84
2018-02-16T08:21:46.330Z,87.48
2018-02-16T08:31:46.789Z,85.63
2018-02-16T08:41:48.668Z,83.42
2018-02-16T08:51:45.088Z,83.11
2018-02-16T09:01:45.795Z,84.36
2018-02-16T09:11:46.249Z,83.04
2018-02-16T09:21:42.871Z,78.97
2018-02-16T09:31:41.126Z,78.52
2018-02-16T09:41:40.338Z,76.89
2018-02-16T09:51:38.616Z,76.61
2018-02-16T10:01:36.903Z,76.61
2018-02-16T10:11:36.751Z,73.49
2018-02-16T10:21:15.586Z,69.56
2018-02-16T10:31:12.354Z,70.42
2018-02-16T10:41:12.637Z,69.14
2018-02-16T10:50:51.220Z,69.32
2018-02-16T11:00:28.538Z,67.14
2018-02-16T11:10:06.129Z,68.52
2018-02-16T11:19:44.311Z,66.90
2018-02-16T11:29:22.552Z,64.42
2018-02-16T11:38:59.620Z,64.11
2018-02-16T11:48:37.485Z,66.41
2018-02-16T11:58:15.338Z,65.25
2018-02-16T12:07:55.321Z,64.90
2018-02-16T12:17:25.144Z,65.94
2018-02-16T12:27:07.172Z,65.22
2018-02-16T12:36:37.143Z,62.44
2018-02-16T12:46:15.032Z,63.18
2018-02-16T12:55:57.769Z,57.88
2018-02-16T13:05:26.727Z,60.82
2018-02-16T13:15:04.492Z,61.63
2018-02-16T13:24:42.757Z,62.85
2018-02-16T13:34:21.525Z,56.56
2018-02-16T13:44:02.811Z,58.18
2018-02-16T13:53:41.487Z,54.87
2018-02-16T14:03:19.434Z,52.15
2018-02-16T14:12:59.665Z,54.44
2018-02-16T14:22:38.108Z,52.19
2018-02-16T14:32:15.431Z,51.37
2018-02-16T14:41:49.061Z,57.16
2018-02-16T14:51:23.868Z,60.56
2018-02-16T15:00:59.130Z,60.69
2018-02-16T15:10:34.262Z,62.35
2018-02-16T15:20:11.059Z,63.10
2018-02-16T15:29:47.362Z,65.85
2018-02-16T15:39:24.048Z,69.15
2018-02-16T15:49:21.444Z,70.21
2018-02-16T15:59:19.864Z,70.28
2018-02-16T16:08:57.655Z,100.00
2018-02-16T16:18:55.390Z,74.01
2018-02-16T16:28:54.351Z,85.28
2018-02-16T16:38:50.152Z,84.80
2018-02-16T16:48:51.445Z,86.85
2018-02-16T16:58:51.392Z,86.99
2018-02-16T17:08:59.225Z,89.54
2018-02-16T17:18:59.017Z,88.70
2018-02-16T17:28:53.848Z,88.91
2018-02-16T17:38:54.836Z,89.50
2018-02-16T17:49:01.272Z,89.60
2018-02-16T17:58:56.684Z,88.14
2018-02-16T18:08:59.397Z,88.76
2018-02-16T18:18:53.512Z,90.54
2018-02-16T18:28:54.838Z,90.95
2018-02-16T18:38:58.642Z,92.00
2018-02-16T18:48:54.161Z,90.29
2018-02-16T18:58:54.985Z,91.22
2018-02-16T19:08:59.751Z,89.45
2018-02-16T19:19:00.625Z,92.83
2018-02-16T19:28:55.228Z,92.87
2018-02-16T19:38:55.133Z,93.04
2018-02-16T19:49:12.833Z,92.00
2018-02-16T19:59:11.323Z,91.68
2018-02-16T20:09:05.427Z,93.81
2018-02-16T20:18:59.393Z,94.33
2018-02-16T20:29:04.211Z,95.62
2018-02-16T20:39:05.001Z,95.27
2018-02-16T20:49:08.725Z,94.85
2018-02-16T20:59:02.403Z,94.43
2018-02-16T21:09:01.301Z,94.23
2018-02-16T21:19:05.550Z,95.31
2018-02-16T21:29:05.717Z,93.85
2018-02-16T21:39:16.405Z,94.02
2018-02-16T21:49:14.051Z,93.44
2018-02-16T21:59:13.777Z,94.90
2018-02-16T22:09:14.218Z,93.44
2018-02-16T22:19:17.813Z,94.75
2018-02-16T22:29:15.620Z,92.81
2018-02-16T22:39:10.066Z,93.18
2018-02-16T22:49:08.624Z,92.77
2018-02-16T22:59:01.747Z,94.12
2018-02-16T23:09:02.412Z,95.79
2018-02-16T23:19:07.876Z,93.60
2018-02-16T23:28:55.755Z,95.48
2018-02-16T23:38:56.350Z,95.58
2018-02-16T23:49:01.928Z,95.43
2018-02-16T23:58:55.552Z,95.54
